sensor_id;sensor_type;location;lat;lon;timestamp;temperature;humidity
40153;DHT22;26371;56.992;23.912;2022-09-13T00:10:13;10.00;99.90
40153;DHT22;26371;56.992;23.912;2022-09-13T00:12:43;10.00;99.90
40153;DHT22;26371;56.992;23.912;2022-09-13T00:15:14;10.00;99.90
40153;DHT22;26371;56.992;23.912;2022-09-13T00:21:07;10.10;99.90
40153;DHT22;26371;56.992;23.912;2022-09-13T00:26:47;10.10;99.90
40153;DHT22;26371;56.992;23.912;2022-09-13T00:29:17;10.20;99.90
40153;DHT22;26371;56.992;23.912;2022-09-13T00:31:53;10.20;99.90
40153;DHT22;26371;56.992;23.912;2022-09-13T00:43:16;10.20;99.90
40153;DHT22;26371;56.992;23.912;2022-09-13T00:45:48;10.20;99.90
40153;DHT22;26371;56.992;23.912;2022-09-13T00:48:20;10.30;99.90
40153;DHT22;26371;56.992;23.912;2022-09-13T00:54:58;10.30;99.90
40153;DHT22;26371;56.992;23.912;2022-09-13T00:57:28;10.30;99.90
40153;DHT22;26371;56.992;23.912;2022-09-13T01:00:03;10.40;99.90
40153;DHT22;26371;56.992;23.912;2022-09-13T01:06:31;10.40;99.90
40153;DHT22;26371;56.992;23.912;2022-09-13T01:09:04;10.40;99.90
40153;DHT22;26371;56.992;23.912;2022-09-13T01:16:07;10.40;99.90
40153;DHT22;26371;56.992;23.912;2022-09-13T01:18:36;10.40;99.90
40153;DHT22;26371;56.992;23.912;2022-09-13T01:26:02;10.30;99.90
40153;DHT22;26371;56.992;23.912;2022-09-13T01:28:58;10.30;99.90
40153;DHT22;26371;56.992;23.912;2022-09-13T01:31:47;10.20;99.90
40153;DHT22;26371;56.992;23.912;2022-09-13T01:46:03;10.30;99.90
40153;DHT22;26371;56.992;23.912;2022-09-13T01:48:48;10.30;99.90
40153;DHT22;26371;56.992;23.912;2022-09-13T01:51:25;10.30;99.90
40153;DHT22;26371;56.992;23.912;2022-09-13T01:54:28;10.40;99.90
40153;DHT22;26371;56.992;23.912;2022-09-13T01:57:15;10.40;99.90
40153;DHT22;26371;56.992;23.912;2022-09-13T01:59:48;10.40;99.90
40153;DHT22;26371;56.992;23.912;2022-09-13T02:06:15;10.50;99.90
40153;DHT22;26371;56.992;23.912;2022-09-13T02:08:49;10.50;99.90
40153;DHT22;26371;56.992;23.912;2022-09-13T02:11:48;10.50;99.90
40153;DHT22;26371;56.992;23.912;2022-09-13T02:14:20;10.50;99.90
40153;DHT22;26371;56.992;23.912;2022-09-13T02:16:53;10.50;99.90
40153;DHT22;26371;56.992;23.912;2022-09-13T02:23:50;10.50;99.90
40153;DHT22;26371;56.992;23.912;2022-09-13T02:26:22;10.50;99.90
40153;DHT22;26371;56.992;23.912;2022-09-13T02:28:54;10.50;99.90
40153;DHT22;26371;56.992;23.912;2022-09-13T02:31:27;10.50;99.90
40153;DHT22;26371;56.992;23.912;2022-09-13T02:38:24;10.50;99.90
40153;DHT22;26371;56.992;23.912;2022-09-13T02:40:59;10.60;99.90
40153;DHT22;26371;56.992;23.912;2022-09-13T02:43:34;10.60;99.90
40153;DHT22;26371;56.992;23.912;2022-09-13T02:57:30;10.60;99.90
40153;DHT22;26371;56.992;23.912;2022-09-13T03:00:00;10.50;99.90
40153;DHT22;26371;56.992;23.912;2022-09-13T03:02:58;10.40;99.90
40153;DHT22;26371;56.992;23.912;2022-09-13T03:05:30;10.30;99.90
40153;DHT22;26371;56.992;23.912;2022-09-13T03:08:00;10.30;99.90
40153;DHT22;26371;56.992;23.912;2022-09-13T03:10:34;10.30;99.90
40153;DHT22;26371;56.992;23.912;2022-09-13T03:20:55;10.30;99.90
40153;DHT22;26371;56.992;23.912;2022-09-13T03:23:40;10.30;99.90
40153;DHT22;26371;56.992;23.912;2022-09-13T03:26:28;10.30;99.90
40153;DHT22;26371;56.992;23.912;2022-09-13T03:29:11;10.30;99.90
40153;DHT22;26371;56.992;23.912;2022-09-13T03:36:53;10.20;99.90
40153;DHT22;26371;56.992;23.912;2022-09-13T03:39:32;10.20;99.90
40153;DHT22;26371;56.992;23.912;2022-09-13T03:50:36;10.10;99.90
40153;DHT22;26371;56.992;23.912;2022-09-13T03:57:11;10.20;99.90
40153;DHT22;26371;56.992;23.912;2022-09-13T03:59:44;10.20;99.90
40153;DHT22;26371;56.992;23.912;2022-09-13T04:11:38;10.30;99.90
40153;DHT22;26371;56.992;23.912;2022-09-13T04:18:32;10.40;99.90
40153;DHT22;26371;56.992;23.912;2022-09-13T04:29:25;10.40;99.90
40153;DHT22;26371;56.992;23.912;2022-09-13T04:36:51;10.40;99.90
40153;DHT22;26371;56.992;23.912;2022-09-13T04:39:21;10.50;99.90
40153;DHT22;26371;56.992;23.912;2022-09-13T04:45:58;10.50;99.90
40153;DHT22;26371;56.992;23.912;2022-09-13T04:48:27;10.40;99.90
40153;DHT22;26371;56.992;23.912;2022-09-13T04:51:01;10.40;99.90
40153;DHT22;26371;56.992;23.912;2022-09-13T04:57:06;10.50;99.90
40153;DHT22;26371;56.992;23.912;2022-09-13T04:59:35;10.40;99.90
40153;DHT22;26371;56.992;23.912;2022-09-13T05:06:07;10.40;99.90
40153;DHT22;26371;56.992;23.912;2022-09-13T05:08:37;10.50;99.90
40153;DHT22;26371;56.992;23.912;2022-09-13T05:11:07;10.50;99.90
40153;DHT22;26371;56.992;23.912;2022-09-13T05:13:49;10.50;99.90
40153;DHT22;26371;56.992;23.912;2022-09-13T05:16:22;10.50;99.90
40153;DHT22;26371;56.992;23.912;2022-09-13T05:18:52;10.50;99.90
40153;DHT22;26371;56.992;23.912;2022-09-13T05:21:22;10.50;99.90
40153;DHT22;26371;56.992;23.912;2022-09-13T05:23:51;10.50;99.90
40153;DHT22;26371;56.992;23.912;2022-09-13T05:26:21;10.50;99.90
40153;DHT22;26371;56.992;23.912;2022-09-13T05:28:52;10.50;99.90
40153;DHT22;26371;56.992;23.912;2022-09-13T05:31:23;10.50;99.90
40153;DHT22;26371;56.992;23.912;2022-09-13T05:37:19;10.60;99.90
40153;DHT22;26371;56.992;23.912;2022-09-13T05:40:16;10.60;99.90
40153;DHT22;26371;56.992;23.912;2022-09-13T05:42:45;10.60;99.90
40153;DHT22;26371;56.992;23.912;2022-09-13T05:45:16;10.60;99.90
40153;DHT22;26371;56.992;23.912;2022-09-13T05:47:50;10.50;99.90
40153;DHT22;26371;56.992;23.912;2022-09-13T05:50:20;10.60;99.90
40153;DHT22;26371;56.992;23.912;2022-09-13T05:57:20;10.60;99.90
40153;DHT22;26371;56.992;23.912;2022-09-13T05:59:49;10.70;99.90
40153;DHT22;26371;56.992;23.912;2022-09-13T06:11:15;10.80;99.90
40153;DHT22;26371;56.992;23.912;2022-09-13T06:21:50;10.80;99.90
40153;DHT22;26371;56.992;23.912;2022-09-13T06:24:19;10.90;99.90
40153;DHT22;26371;56.992;23.912;2022-09-13T06:26:50;10.80;99.90
40153;DHT22;26371;56.992;23.912;2022-09-13T06:29:19;10.90;99.90
40153;DHT22;26371;56.992;23.912;2022-09-13T06:31:57;10.90;99.90
40153;DHT22;26371;56.992;23.912;2022-09-13T06:34:35;10.90;99.90
40153;DHT22;26371;56.992;23.912;2022-09-13T06:37:04;10.90;99.90
40153;DHT22;26371;56.992;23.912;2022-09-13T06:44:18;10.90;99.90
40153;DHT22;26371;56.992;23.912;2022-09-13T06:46:47;10.90;99.90
40153;DHT22;26371;56.992;23.912;2022-09-13T06:49:16;11.00;99.90
40153;DHT22;26371;56.992;23.912;2022-09-13T06:51:45;11.00;99.90
40153;DHT22;26371;56.992;23.912;2022-09-13T06:54:14;11.10;99.90
40153;DHT22;26371;56.992;23.912;2022-09-13T06:56:44;11.20;99.90
40153;DHT22;26371;56.992;23.912;2022-09-13T06:59:13;11.30;99.90
40153;DHT22;26371;56.992;23.912;2022-09-13T07:01:44;11.40;99.90
40153;DHT22;26371;56.992;23.912;2022-09-13T07:04:14;11.30;99.90
40153;DHT22;26371;56.992;23.912;2022-09-13T07:06:45;11.40;99.90
40153;DHT22;26371;56.992;23.912;2022-09-13T07:09:16;11.40;99.90
40153;DHT22;26371;56.992;23.912;2022-09-13T07:16:19;11.40;99.90
40153;DHT22;26371;56.992;23.912;2022-09-13T07:18:52;11.30;99.90
40153;DHT22;26371;56.992;23.912;2022-09-13T07:21:22;11.30;99.90
40153;DHT22;26371;56.992;23.912;2022-09-13T07:23:52;11.40;99.90
40153;DHT22;26371;56.992;23.912;2022-09-13T07:26:22;11.40;99.90
40153;DHT22;26371;56.992;23.912;2022-09-13T07:28:51;11.40;99.90
40153;DHT22;26371;56.992;23.912;2022-09-13T07:31:22;11.40;99.90
40153;DHT22;26371;56.992;23.912;2022-09-13T07:33:55;11.50;99.90
40153;DHT22;26371;56.992;23.912;2022-09-13T07:36:25;11.60;99.90
40153;DHT22;26371;56.992;23.912;2022-09-13T07:38:55;11.60;99.90
40153;DHT22;26371;56.992;23.912;2022-09-13T07:41:30;11.70;99.90
40153;DHT22;26371;56.992;23.912;2022-09-13T07:44:00;11.70;99.90
40153;DHT22;26371;56.992;23.912;2022-09-13T07:46:30;11.70;99.90
40153;DHT22;26371;56.992;23.912;2022-09-13T07:49:02;11.70;99.90
40153;DHT22;26371;56.992;23.912;2022-09-13T07:51:33;11.80;99.90
40153;DHT22;26371;56.992;23.912;2022-09-13T07:54:05;11.80;99.90
40153;DHT22;26371;56.992;23.912;2022-09-13T07:56:36;11.80;99.90
40153;DHT22;26371;56.992;23.912;2022-09-13T07:59:09;11.90;99.90
40153;DHT22;26371;56.992;23.912;2022-09-13T08:06:05;12.00;99.90
40153;DHT22;26371;56.992;23.912;2022-09-13T08:13:02;12.00;99.90
40153;DHT22;26371;56.992;23.912;2022-09-13T08:15:31;12.10;99.90
40153;DHT22;26371;56.992;23.912;2022-09-13T08:18:01;12.00;99.90
40153;DHT22;26371;56.992;23.912;2022-09-13T08:20:30;12.00;99.90
40153;DHT22;26371;56.992;23.912;2022-09-13T08:23:00;12.10;99.90
40153;DHT22;26371;56.992;23.912;2022-09-13T08:25:31;12.10;99.90
40153;DHT22;26371;56.992;23.912;2022-09-13T08:28:05;12.20;99.90
40153;DHT22;26371;56.992;23.912;2022-09-13T08:30:34;12.30;99.90
40153;DHT22;26371;56.992;23.912;2022-09-13T08:33:04;12.30;99.90
40153;DHT22;26371;56.992;23.912;2022-09-13T08:35:33;12.40;99.90
40153;DHT22;26371;56.992;23.912;2022-09-13T08:38:04;12.40;99.90
40153;DHT22;26371;56.992;23.912;2022-09-13T08:45:15;12.40;99.90
40153;DHT22;26371;56.992;23.912;2022-09-13T08:47:47;12.40;99.90
40153;DHT22;26371;56.992;23.912;2022-09-13T08:50:25;12.40;99.90
40153;DHT22;26371;56.992;23.912;2022-09-13T08:53:19;12.40;99.90
40153;DHT22;26371;56.992;23.912;2022-09-13T08:55:56;12.40;99.90
40153;DHT22;26371;56.992;23.912;2022-09-13T08:58:37;12.40;99.90
40153;DHT22;26371;56.992;23.912;2022-09-13T09:01:18;12.40;99.90
40153;DHT22;26371;56.992;23.912;2022-09-13T09:07:16;12.40;99.90
40153;DHT22;26371;56.992;23.912;2022-09-13T09:09:55;12.40;99.90
40153;DHT22;26371;56.992;23.912;2022-09-13T09:15:59;12.40;99.90
40153;DHT22;26371;56.992;23.912;2022-09-13T09:18:32;12.50;99.90
40153;DHT22;26371;56.992;23.912;2022-09-13T09:21:05;12.50;99.90
40153;DHT22;26371;56.992;23.912;2022-09-13T09:24:04;12.60;99.90
40153;DHT22;26371;56.992;23.912;2022-09-13T09:26:41;12.70;99.90
40153;DHT22;26371;56.992;23.912;2022-09-13T09:29:17;12.70;99.90
40153;DHT22;26371;56.992;23.912;2022-09-13T09:32:07;12.80;99.90
40153;DHT22;26371;56.992;23.912;2022-09-13T09:34:51;12.70;99.90
40153;DHT22;26371;56.992;23.912;2022-09-13T09:37:24;12.70;99.90
40153;DHT22;26371;56.992;23.912;2022-09-13T09:39:57;12.70;99.90
40153;DHT22;26371;56.992;23.912;2022-09-13T09:42:54;12.70;99.90
40153;DHT22;26371;56.992;23.912;2022-09-13T09:45:26;12.80;99.90
40153;DHT22;26371;56.992;23.912;2022-09-13T09:47:59;12.80;99.90
40153;DHT22;26371;56.992;23.912;2022-09-13T09:50:33;12.90;99.90
40153;DHT22;26371;56.992;23.912;2022-09-13T09:56:11;13.10;99.90
40153;DHT22;26371;56.992;23.912;2022-09-13T10:01:28;13.20;99.90
40153;DHT22;26371;56.992;23.912;2022-09-13T10:04:07;13.20;99.90
40153;DHT22;26371;56.992;23.912;2022-09-13T10:06:45;13.20;99.90
40153;DHT22;26371;56.992;23.912;2022-09-13T10:12:26;13.10;99.90
40153;DHT22;26371;56.992;23.912;2022-09-13T10:15:05;13.10;99.90
40153;DHT22;26371;56.992;23.912;2022-09-13T10:17:35;13.10;99.90
40153;DHT22;26371;56.992;23.912;2022-09-13T10:20:20;13.20;99.90
40153;DHT22;26371;56.992;23.912;2022-09-13T10:23:10;13.20;99.90
40153;DHT22;26371;56.992;23.912;2022-09-13T10:25:42;13.20;99.90
40153;DHT22;26371;56.992;23.912;2022-09-13T10:28:16;13.20;99.90
40153;DHT22;26371;56.992;23.912;2022-09-13T10:30:52;13.20;99.90
40153;DHT22;26371;56.992;23.912;2022-09-13T10:33:26;13.30;99.90
40153;DHT22;26371;56.992;23.912;2022-09-13T10:35:59;13.50;99.90
40153;DHT22;26371;56.992;23.912;2022-09-13T10:38:31;13.60;99.90
40153;DHT22;26371;56.992;23.912;2022-09-13T10:41:04;13.60;99.90
40153;DHT22;26371;56.992;23.912;2022-09-13T10:43:34;13.70;99.90
40153;DHT22;26371;56.992;23.912;2022-09-13T10:46:10;13.70;99.90
40153;DHT22;26371;56.992;23.912;2022-09-13T10:48:46;13.70;99.90
40153;DHT22;26371;56.992;23.912;2022-09-13T10:51:34;13.60;99.90
40153;DHT22;26371;56.992;23.912;2022-09-13T10:54:17;13.60;99.90
40153;DHT22;26371;56.992;23.912;2022-09-13T10:56:47;13.60;99.90
40153;DHT22;26371;56.992;23.912;2022-09-13T10:59:22;13.60;99.90
40153;DHT22;26371;56.992;23.912;2022-09-13T11:05:21;13.70;99.90
40153;DHT22;26371;56.992;23.912;2022-09-13T11:08:19;13.80;99.90
40153;DHT22;26371;56.992;23.912;2022-09-13T11:11:02;14.00;99.90
40153;DHT22;26371;56.992;23.912;2022-09-13T11:13:44;14.20;99.90
40153;DHT22;26371;56.992;23.912;2022-09-13T11:16:34;14.40;99.90
40153;DHT22;26371;56.992;23.912;2022-09-13T11:19:33;14.50;99.90
40153;DHT22;26371;56.992;23.912;2022-09-13T11:22:44;14.60;99.90
40153;DHT22;26371;56.992;23.912;2022-09-13T11:25:31;14.60;99.90
40153;DHT22;26371;56.992;23.912;2022-09-13T11:28:12;14.60;99.90
40153;DHT22;26371;56.992;23.912;2022-09-13T11:30:56;14.60;99.90
40153;DHT22;26371;56.992;23.912;2022-09-13T11:33:36;14.70;99.90
40153;DHT22;26371;56.992;23.912;2022-09-13T11:36:26;14.90;99.90
40153;DHT22;26371;56.992;23.912;2022-09-13T11:39:05;15.00;99.90
40153;DHT22;26371;56.992;23.912;2022-09-13T11:41:42;15.10;99.90
40153;DHT22;26371;56.992;23.912;2022-09-13T11:44:27;15.00;99.90
40153;DHT22;26371;56.992;23.912;2022-09-13T11:47:07;14.90;99.90
40153;DHT22;26371;56.992;23.912;2022-09-13T11:50:21;14.80;99.90
40153;DHT22;26371;56.992;23.912;2022-09-13T11:53:04;14.80;99.90
40153;DHT22;26371;56.992;23.912;2022-09-13T11:55:39;14.90;99.90
40153;DHT22;26371;56.992;23.912;2022-09-13T11:58:13;14.90;99.90
40153;DHT22;26371;56.992;23.912;2022-09-13T12:00:47;14.90;99.90
40153;DHT22;26371;56.992;23.912;2022-09-13T12:03:24;15.00;99.90
40153;DHT22;26371;56.992;23.912;2022-09-13T12:05:58;15.00;99.90
40153;DHT22;26371;56.992;23.912;2022-09-13T12:08:34;15.10;99.90
40153;DHT22;26371;56.992;23.912;2022-09-13T12:11:09;15.20;99.90
40153;DHT22;26371;56.992;23.912;2022-09-13T12:13:45;15.20;99.90
40153;DHT22;26371;56.992;23.912;2022-09-13T12:16:21;15.10;99.90
40153;DHT22;26371;56.992;23.912;2022-09-13T12:18:54;15.00;99.90
40153;DHT22;26371;56.992;23.912;2022-09-13T12:21:29;14.90;99.90
40153;DHT22;26371;56.992;23.912;2022-09-13T12:24:06;14.90;99.90
40153;DHT22;26371;56.992;23.912;2022-09-13T12:26:40;14.80;99.90
40153;DHT22;26371;56.992;23.912;2022-09-13T12:29:16;14.90;99.90
40153;DHT22;26371;56.992;23.912;2022-09-13T12:31:49;15.00;99.90
40153;DHT22;26371;56.992;23.912;2022-09-13T12:34:23;15.00;99.90
40153;DHT22;26371;56.992;23.912;2022-09-13T12:37:07;15.00;99.90
40153;DHT22;26371;56.992;23.912;2022-09-13T12:42:54;14.90;99.90
40153;DHT22;26371;56.992;23.912;2022-09-13T12:45:49;14.80;99.90
40153;DHT22;26371;56.992;23.912;2022-09-13T12:48:36;14.80;99.90
40153;DHT22;26371;56.992;23.912;2022-09-13T12:51:14;14.70;99.90
40153;DHT22;26371;56.992;23.912;2022-09-13T12:54:12;14.80;99.90
40153;DHT22;26371;56.992;23.912;2022-09-13T12:57:08;14.80;99.90
40153;DHT22;26371;56.992;23.912;2022-09-13T13:03:04;14.70;99.90
40153;DHT22;26371;56.992;23.912;2022-09-13T13:05:43;14.70;99.90
40153;DHT22;26371;56.992;23.912;2022-09-13T13:08:27;14.70;99.90
40153;DHT22;26371;56.992;23.912;2022-09-13T13:11:03;14.70;99.90
40153;DHT22;26371;56.992;23.912;2022-09-13T13:13:37;14.70;99.90
40153;DHT22;26371;56.992;23.912;2022-09-13T13:16:26;14.80;99.90
40153;DHT22;26371;56.992;23.912;2022-09-13T13:18:57;14.70;99.90
40153;DHT22;26371;56.992;23.912;2022-09-13T13:21:33;14.80;99.90
40153;DHT22;26371;56.992;23.912;2022-09-13T13:24:42;14.80;99.90
40153;DHT22;26371;56.992;23.912;2022-09-13T13:27:38;14.90;99.90
40153;DHT22;26371;56.992;23.912;2022-09-13T13:30:41;14.90;99.90
40153;DHT22;26371;56.992;23.912;2022-09-13T13:33:21;14.90;99.90
40153;DHT22;26371;56.992;23.912;2022-09-13T13:35:52;15.00;99.90
40153;DHT22;26371;56.992;23.912;2022-09-13T13:38:41;14.90;99.90
40153;DHT22;26371;56.992;23.912;2022-09-13T13:47:55;14.80;99.90
40153;DHT22;26371;56.992;23.912;2022-09-13T13:50:35;14.70;99.90
40153;DHT22;26371;56.992;23.912;2022-09-13T13:53:35;14.70;99.90
40153;DHT22;26371;56.992;23.912;2022-09-13T13:56:14;14.60;99.90
40153;DHT22;26371;56.992;23.912;2022-09-13T13:58:51;14.60;99.90
40153;DHT22;26371;56.992;23.912;2022-09-13T14:01:25;14.50;99.90
40153;DHT22;26371;56.992;23.912;2022-09-13T14:07:11;14.40;99.90
40153;DHT22;26371;56.992;23.912;2022-09-13T14:09:52;14.30;99.90
40153;DHT22;26371;56.992;23.912;2022-09-13T14:12:31;14.20;99.90
40153;DHT22;26371;56.992;23.912;2022-09-13T14:15:11;14.20;99.90
40153;DHT22;26371;56.992;23.912;2022-09-13T14:20:59;14.10;99.90
40153;DHT22;26371;56.992;23.912;2022-09-13T14:23:31;14.00;99.90
40153;DHT22;26371;56.992;23.912;2022-09-13T14:26:03;14.00;99.90
40153;DHT22;26371;56.992;23.912;2022-09-13T14:28:33;14.00;99.90
40153;DHT22;26371;56.992;23.912;2022-09-13T14:31:04;13.90;99.90
40153;DHT22;26371;56.992;23.912;2022-09-13T14:33:35;13.90;99.90
40153;DHT22;26371;56.992;23.912;2022-09-13T14:36:07;13.90;99.90
40153;DHT22;26371;56.992;23.912;2022-09-13T14:38:49;13.90;99.90
40153;DHT22;26371;56.992;23.912;2022-09-13T14:41:29;13.90;99.90
40153;DHT22;26371;56.992;23.912;2022-09-13T14:44:18;13.90;99.90
40153;DHT22;26371;56.992;23.912;2022-09-13T14:47:03;13.90;99.90
40153;DHT22;26371;56.992;23.912;2022-09-13T14:49:38;13.90;99.90
40153;DHT22;26371;56.992;23.912;2022-09-13T14:52:19;13.80;99.90
40153;DHT22;26371;56.992;23.912;2022-09-13T14:54:56;13.80;99.90
40153;DHT22;26371;56.992;23.912;2022-09-13T15:01:44;13.80;99.90
40153;DHT22;26371;56.992;23.912;2022-09-13T15:04:17;13.80;99.90
40153;DHT22;26371;56.992;23.912;2022-09-13T15:07:05;13.80;99.90
40153;DHT22;26371;56.992;23.912;2022-09-13T15:09:35;13.80;99.90
40153;DHT22;26371;56.992;23.912;2022-09-13T15:12:22;13.80;99.90
40153;DHT22;26371;56.992;23.912;2022-09-13T15:18:05;13.80;99.90
40153;DHT22;26371;56.992;23.912;2022-09-13T15:20:49;13.70;99.90
40153;DHT22;26371;56.992;23.912;2022-09-13T15:28:29;13.60;99.90
40153;DHT22;26371;56.992;23.912;2022-09-13T15:31:00;13.60;99.90
40153;DHT22;26371;56.992;23.912;2022-09-13T15:33:31;13.60;99.90
40153;DHT22;26371;56.992;23.912;2022-09-13T15:36:24;13.60;99.90
40153;DHT22;26371;56.992;23.912;2022-09-13T15:38:58;13.60;99.90
40153;DHT22;26371;56.992;23.912;2022-09-13T15:41:29;13.60;99.90
40153;DHT22;26371;56.992;23.912;2022-09-13T15:44:03;13.60;99.90
40153;DHT22;26371;56.992;23.912;2022-09-13T15:46:42;13.60;99.90
40153;DHT22;26371;56.992;23.912;2022-09-13T15:49:16;13.60;99.90
40153;DHT22;26371;56.992;23.912;2022-09-13T15:51:46;13.60;99.90
40153;DHT22;26371;56.992;23.912;2022-09-13T15:54:17;13.60;99.90
40153;DHT22;26371;56.992;23.912;2022-09-13T15:56:47;13.60;99.90
40153;DHT22;26371;56.992;23.912;2022-09-13T15:59:20;13.60;99.90
40153;DHT22;26371;56.992;23.912;2022-09-13T16:01:51;13.60;99.90
40153;DHT22;26371;56.992;23.912;2022-09-13T16:04:22;13.50;99.90
40153;DHT22;26371;56.992;23.912;2022-09-13T16:06:52;13.50;99.90
40153;DHT22;26371;56.992;23.912;2022-09-13T16:09:22;13.50;99.90
40153;DHT22;26371;56.992;23.912;2022-09-13T16:11:53;13.40;99.90
40153;DHT22;26371;56.992;23.912;2022-09-13T16:14:25;13.30;99.90
40153;DHT22;26371;56.992;23.912;2022-09-13T16:19:23;13.30;99.90
40153;DHT22;26371;56.992;23.912;2022-09-13T16:24:50;13.30;99.90
40153;DHT22;26371;56.992;23.912;2022-09-13T16:27:20;13.30;99.90
40153;DHT22;26371;56.992;23.912;2022-09-13T16:29:52;13.20;99.90
40153;DHT22;26371;56.992;23.912;2022-09-13T16:32:24;13.20;99.90
40153;DHT22;26371;56.992;23.912;2022-09-13T16:34:55;13.20;99.90
40153;DHT22;26371;56.992;23.912;2022-09-13T16:37:25;13.20;99.90
40153;DHT22;26371;56.992;23.912;2022-09-13T16:39:55;13.20;99.90
40153;DHT22;26371;56.992;23.912;2022-09-13T16:42:25;13.10;99.90
40153;DHT22;26371;56.992;23.912;2022-09-13T16:44:57;13.10;99.90
40153;DHT22;26371;56.992;23.912;2022-09-13T16:47:27;13.10;99.90
40153;DHT22;26371;56.992;23.912;2022-09-13T16:49:56;13.00;99.90
40153;DHT22;26371;56.992;23.912;2022-09-13T16:52:27;13.10;99.90
40153;DHT22;26371;56.992;23.912;2022-09-13T16:54:57;13.00;99.90
40153;DHT22;26371;56.992;23.912;2022-09-13T16:57:32;13.00;99.90
40153;DHT22;26371;56.992;23.912;2022-09-13T17:00:06;13.00;99.90
40153;DHT22;26371;56.992;23.912;2022-09-13T17:02:38;12.90;99.90
40153;DHT22;26371;56.992;23.912;2022-09-13T17:05:09;12.90;99.90
40153;DHT22;26371;56.992;23.912;2022-09-13T17:07:41;12.90;99.90
40153;DHT22;26371;56.992;23.912;2022-09-13T17:10:11;12.90;99.90
40153;DHT22;26371;56.992;23.912;2022-09-13T17:12:40;12.80;99.90
40153;DHT22;26371;56.992;23.912;2022-09-13T17:15:11;12.90;99.90
40153;DHT22;26371;56.992;23.912;2022-09-13T17:17:40;12.90;99.90
40153;DHT22;26371;56.992;23.912;2022-09-13T17:20:11;12.90;99.90
40153;DHT22;26371;56.992;23.912;2022-09-13T17:26:15;12.90;99.90
